createdAt,value
2018-09-30T00:02:20.654Z,4.07
2018-09-30T00:04:52.190Z,3.90
2018-09-30T00:07:24.191Z,3.97
2018-09-30T00:09:55.746Z,3.73
2018-09-30T00:12:27.284Z,3.40
2018-09-30T00:14:58.764Z,4.00
2018-09-30T00:17:30.197Z,3.43
2018-09-30T00:20:01.714Z,3.47
2018-09-30T00:22:33.305Z,3.70
2018-09-30T00:25:09.890Z,3.63
2018-09-30T00:27:41.515Z,4.17
2018-09-30T00:30:13.187Z,3.50
2018-09-30T00:32:44.647Z,3.77
2018-09-30T00:35:16.205Z,4.00
2018-09-30T00:37:47.720Z,3.50
2018-09-30T00:40:19.194Z,3.80
2018-09-30T00:42:50.688Z,4.23
2018-09-30T00:45:22.187Z,4.10
2018-09-30T00:47:53.646Z,4.37
2018-09-30T00:50:25.255Z,3.40
2018-09-30T00:52:56.704Z,3.80
2018-09-30T00:55:28.417Z,4.10
2018-09-30T00:57:59.749Z,3.90
2018-09-30T01:00:30.791Z,4.43
2018-09-30T01:03:02.017Z,4.87
2018-09-30T01:05:33.641Z,4.50
2018-09-30T01:08:04.951Z,5.30
2018-09-30T01:13:06.897Z,4.50
2018-09-30T01:15:38.389Z,4.30
2018-09-30T01:18:09.726Z,4.17
2018-09-30T01:20:41.361Z,4.13
2018-09-30T01:23:12.772Z,4.13
2018-09-30T01:25:44.203Z,3.60
2018-09-30T01:28:15.673Z,4.00
2018-09-30T01:30:47.190Z,3.87
2018-09-30T01:33:18.657Z,3.80
2018-09-30T01:35:50.223Z,3.37
2018-09-30T01:38:21.731Z,4.00
2018-09-30T01:40:52.748Z,4.00
2018-09-30T01:43:23.743Z,3.43
2018-09-30T01:45:55.308Z,3.83
2018-09-30T01:48:26.787Z,4.07
2018-09-30T01:50:58.372Z,3.70
2018-09-30T01:53:29.830Z,3.73
2018-09-30T01:56:01.404Z,3.40
2018-09-30T01:58:32.717Z,4.10
2018-09-30T02:01:04.312Z,3.70
2018-09-30T02:03:35.706Z,3.63
2018-09-30T02:06:07.199Z,3.83
2018-09-30T02:08:38.655Z,4.03
2018-09-30T02:11:10.119Z,3.40
2018-09-30T02:13:41.667Z,4.27
2018-09-30T02:16:13.203Z,3.77
2018-09-30T02:18:44.662Z,4.03
2018-09-30T02:21:15.916Z,4.03
2018-09-30T02:23:47.535Z,4.00
2018-09-30T02:26:19.298Z,3.87
2018-09-30T02:28:50.790Z,3.30
2018-09-30T02:31:21.858Z,3.60
2018-09-30T02:33:53.246Z,4.00
2018-09-30T02:36:24.474Z,3.73
2018-09-30T02:38:55.799Z,3.87
2018-09-30T02:41:26.820Z,4.03
2018-09-30T02:43:58.055Z,4.40
2018-09-30T02:49:00.198Z,4.03
2018-09-30T02:51:31.724Z,3.87
2018-09-30T02:54:03.246Z,4.10
2018-09-30T02:56:34.732Z,3.93
2018-09-30T02:59:06.196Z,4.50
2018-09-30T03:01:37.721Z,4.30
2018-09-30T03:04:08.742Z,4.30
2018-09-30T03:06:44.797Z,3.83
2018-09-30T03:09:18.640Z,4.13
2018-09-30T03:11:50.202Z,3.60
2018-09-30T03:14:21.394Z,3.90
2018-09-30T03:16:52.758Z,4.00
2018-09-30T03:19:23.838Z,4.40
2018-09-30T03:21:55.641Z,3.80
2018-09-30T03:24:27.196Z,3.77
2018-09-30T03:26:58.410Z,4.00
2018-09-30T03:29:30.195Z,4.00
2018-09-30T03:32:01.736Z,4.53
2018-09-30T03:34:33.411Z,3.77
2018-09-30T03:37:04.706Z,4.30
2018-09-30T03:39:36.071Z,4.63
2018-09-30T03:42:07.692Z,4.50
2018-09-30T03:44:39.200Z,4.13
2018-09-30T03:47:10.617Z,4.27
2018-09-30T03:49:41.594Z,4.40
2018-09-30T03:52:12.655Z,3.87
2018-09-30T03:54:43.700Z,4.40
2018-09-30T03:57:14.741Z,4.40
2018-09-30T03:59:45.889Z,3.43
2018-09-30T04:02:17.016Z,3.67
2018-09-30T04:04:48.726Z,3.80
2018-09-30T04:07:19.773Z,4.00
2018-09-30T04:09:50.774Z,4.43
2018-09-30T04:12:22.375Z,3.77
2018-09-30T04:14:53.856Z,4.30
2018-09-30T04:17:25.463Z,4.50
2018-09-30T04:19:56.769Z,4.10
2018-09-30T04:22:28.275Z,3.90
2018-09-30T04:24:59.749Z,4.03
2018-09-30T04:27:31.438Z,3.90
2018-09-30T04:30:02.780Z,3.43
2018-09-30T04:32:34.222Z,3.90
2018-09-30T04:35:05.705Z,3.93
2018-09-30T04:37:37.197Z,4.70
2018-09-30T04:40:09.059Z,4.07
2018-09-30T04:42:40.727Z,3.80
2018-09-30T04:45:12.291Z,3.73
2018-09-30T04:47:43.775Z,4.07
2018-09-30T04:50:15.335Z,4.07
2018-09-30T04:52:46.815Z,4.20
2018-09-30T04:55:18.354Z,4.00
2018-09-30T04:57:49.803Z,4.50
2018-09-30T05:00:21.259Z,3.80
2018-09-30T05:02:52.723Z,4.33
2018-09-30T05:05:24.266Z,4.10
2018-09-30T05:07:55.792Z,4.07
2018-09-30T05:10:26.947Z,4.40
2018-09-30T05:12:58.547Z,3.97
2018-09-30T05:15:30.194Z,4.10
2018-09-30T05:18:01.719Z,4.30
2018-09-30T05:20:33.653Z,4.40
2018-09-30T05:23:05.196Z,4.20
2018-09-30T05:25:36.668Z,4.17
2018-09-30T05:28:08.290Z,3.90
2018-09-30T05:30:39.723Z,4.05
2018-09-30T05:33:11.300Z,3.73
2018-09-30T05:35:42.883Z,4.17
2018-09-30T05:38:14.438Z,4.13
2018-09-30T05:40:45.756Z,3.77
2018-09-30T05:43:17.293Z,3.83
2018-09-30T05:45:48.814Z,4.23
2018-09-30T05:48:20.405Z,4.10
2018-09-30T05:50:51.801Z,4.40
2018-09-30T05:53:23.307Z,4.10
2018-09-30T05:55:54.780Z,4.10
2018-09-30T05:58:26.521Z,4.17
2018-09-30T06:00:57.887Z,4.20
2018-09-30T06:03:29.486Z,4.00
2018-09-30T06:06:01.054Z,4.40
2018-09-30T06:08:32.723Z,3.93
2018-09-30T06:11:04.186Z,4.33
2018-09-30T06:13:35.666Z,3.83
2018-09-30T06:16:07.404Z,3.90
2018-09-30T06:18:38.731Z,3.80
2018-09-30T06:21:09.787Z,3.90
2018-09-30T06:23:40.839Z,3.80
2018-09-30T06:26:18.996Z,3.80
2018-09-30T06:31:20.971Z,3.47
2018-09-30T06:33:52.244Z,3.50
2018-09-30T06:36:23.670Z,3.57
2018-09-30T06:38:55.195Z,3.47
2018-09-30T06:41:26.669Z,2.87
2018-09-30T06:43:57.899Z,3.40
2018-09-30T06:46:29.632Z,2.83
2018-09-30T06:49:01.203Z,3.00
2018-09-30T06:51:32.687Z,3.20
2018-09-30T06:54:04.203Z,3.40
2018-09-30T06:56:35.687Z,2.97
2018-09-30T06:59:07.281Z,2.90
2018-09-30T07:01:38.695Z,3.10
2018-09-30T07:04:10.334Z,3.00
2018-09-30T07:06:41.728Z,3.03
2018-09-30T07:09:13.212Z,3.30
2018-09-30T07:11:44.753Z,2.97
2018-09-30T07:14:16.397Z,3.10
2018-09-30T07:16:48.021Z,2.93
2018-09-30T07:19:19.504Z,2.90
2018-09-30T07:21:50.897Z,2.93
2018-09-30T07:24:25.190Z,2.90
2018-09-30T07:26:56.735Z,2.50
2018-09-30T07:29:28.597Z,2.53
2018-09-30T07:31:59.573Z,2.70
2018-09-30T07:34:30.963Z,2.80
2018-09-30T07:39:33.265Z,2.77
2018-09-30T07:42:04.719Z,2.50
2018-09-30T07:44:36.197Z,2.60
2018-09-30T07:47:07.692Z,2.60
2018-09-30T07:49:39.215Z,2.70
2018-09-30T07:52:11.215Z,2.57
2018-09-30T07:54:42.843Z,2.63
2018-09-30T07:57:14.006Z,2.47
2018-09-30T07:59:45.625Z,2.40
2018-09-30T08:02:16.969Z,2.90
2018-09-30T08:04:48.653Z,2.27
2018-09-30T08:07:20.215Z,2.60
2018-09-30T08:09:51.700Z,2.50
2018-09-30T08:12:23.038Z,2.70
2018-09-30T08:17:25.477Z,2.40
2018-09-30T08:19:56.987Z,2.20
2018-09-30T08:22:28.547Z,2.60
2018-09-30T08:24:59.990Z,2.50
2018-09-30T08:27:31.513Z,2.40
2018-09-30T08:30:03.219Z,2.20
2018-09-30T08:32:34.723Z,2.40
2018-09-30T08:35:10.187Z,2.47
2018-09-30T08:37:47.477Z,2.40
2018-09-30T08:40:24.206Z,2.47
2018-09-30T08:42:55.648Z,2.20
2018-09-30T08:45:26.750Z,2.20
2018-09-30T08:47:58.429Z,2.10
2018-09-30T08:50:29.774Z,2.07
2018-09-30T08:53:00.813Z,2.23
2018-09-30T08:55:32.408Z,2.40
2018-09-30T08:58:03.915Z,2.40
2018-09-30T09:00:35.371Z,2.40
2018-09-30T09:03:06.767Z,1.90
2018-09-30T09:05:37.759Z,2.40
2018-09-30T09:08:09.664Z,2.30
2018-09-30T09:10:41.207Z,2.03
2018-09-30T09:13:12.720Z,2.13
2018-09-30T09:15:44.312Z,2.20
2018-09-30T09:18:16.204Z,2.40
2018-09-30T09:20:47.710Z,2.10
2018-09-30T09:23:19.287Z,2.03
2018-09-30T09:25:50.699Z,2.10
2018-09-30T09:28:23.451Z,2.40
2018-09-30T09:30:54.785Z,2.00
2018-09-30T09:33:25.787Z,2.43
2018-09-30T09:35:57.218Z,2.17
2018-09-30T09:38:28.817Z,2.00
2018-09-30T09:41:00.013Z,2.07
2018-09-30T09:43:31.509Z,2.00
2018-09-30T09:46:02.912Z,2.17
2018-09-30T09:48:34.643Z,2.10
2018-09-30T09:51:06.298Z,2.20
2018-09-30T09:53:37.813Z,2.10
2018-09-30T09:56:09.307Z,2.07
2018-09-30T09:58:40.742Z,2.20
2018-09-30T10:01:12.617Z,2.10
2018-09-30T10:03:43.975Z,2.03
2018-09-30T10:08:46.234Z,1.93
2018-09-30T10:11:17.796Z,1.87
2018-09-30T10:13:49.318Z,2.00
2018-09-30T10:16:21.880Z,2.30
2018-09-30T10:18:53.342Z,2.20
2018-09-30T10:21:24.789Z,2.10
2018-09-30T10:23:56.903Z,2.30
2018-09-30T10:26:28.714Z,1.93
2018-09-30T10:29:00.375Z,2.23
2018-09-30T10:31:31.763Z,2.00
2018-09-30T10:34:03.420Z,2.00
2018-09-30T10:36:34.889Z,2.13
2018-09-30T10:39:08.861Z,2.00
2018-09-30T10:41:40.799Z,1.90
2018-09-30T10:44:12.315Z,2.10
2018-09-30T10:46:45.530Z,2.30
2018-09-30T10:49:18.841Z,2.10
2018-09-30T10:51:50.535Z,2.07
2018-09-30T10:54:22.387Z,2.30
2018-09-30T10:56:54.083Z,2.10
2018-09-30T10:59:25.807Z,1.90
2018-09-30T11:01:57.403Z,2.10
2018-09-30T11:04:28.749Z,1.93
2018-09-30T11:07:00.328Z,1.97
2018-09-30T11:09:31.505Z,2.00
2018-09-30T11:12:03.569Z,2.13
2018-09-30T11:14:35.519Z,2.10
2018-09-30T11:17:07.014Z,1.70
2018-09-30T11:19:38.726Z,1.90
2018-09-30T11:22:10.384Z,2.10
2018-09-30T11:24:41.873Z,2.13
2018-09-30T11:27:13.525Z,2.13
2018-09-30T11:29:44.981Z,1.80
2018-09-30T11:34:47.197Z,1.60
2018-09-30T11:37:18.703Z,2.00
2018-09-30T11:39:50.505Z,2.00
2018-09-30T11:42:22.195Z,2.00
2018-09-30T11:44:53.661Z,1.80
2018-09-30T11:47:25.204Z,1.77
2018-09-30T11:49:56.754Z,1.60
2018-09-30T11:52:28.770Z,2.07
2018-09-30T11:55:00.320Z,1.87
2018-09-30T11:57:32.319Z,1.90
2018-09-30T12:00:03.722Z,1.90
2018-09-30T12:02:35.307Z,1.97
2018-09-30T12:05:07.421Z,1.57
2018-09-30T12:07:39.555Z,1.90
2018-09-30T12:10:10.869Z,2.03
2018-09-30T12:12:42.351Z,1.83
2018-09-30T12:15:13.903Z,1.70
2018-09-30T12:17:45.511Z,2.00
2018-09-30T12:20:17.206Z,1.73
2018-09-30T12:22:48.722Z,1.70
2018-09-30T12:25:19.885Z,2.10
2018-09-30T12:27:51.674Z,1.90
2018-09-30T12:30:23.237Z,2.03
2018-09-30T12:32:54.650Z,1.60
2018-09-30T12:35:26.219Z,2.27
2018-09-30T12:37:57.709Z,1.80
2018-09-30T12:40:29.201Z,2.00
2018-09-30T12:43:00.788Z,1.70
2018-09-30T12:45:32.456Z,2.07
2018-09-30T12:48:03.797Z,1.90
2018-09-30T12:50:35.396Z,1.80
2018-09-30T12:53:07.419Z,1.70
2018-09-30T12:55:38.839Z,1.73
2018-09-30T12:58:10.541Z,1.80
2018-09-30T13:00:41.868Z,1.80
2018-09-30T13:03:13.319Z,1.83
2018-09-30T13:05:44.872Z,1.63
2018-09-30T13:08:15.890Z,1.63
2018-09-30T13:10:47.180Z,1.70
2018-09-30T13:13:18.670Z,1.60
2018-09-30T13:15:49.902Z,1.60
2018-09-30T13:20:02.923Z,2.02
2018-09-30T13:22:33.978Z,1.80
2018-09-30T13:25:05.338Z,1.70
2018-09-30T13:27:36.729Z,1.80
2018-09-30T13:30:07.791Z,1.57
2018-09-30T13:32:39.190Z,1.80
2018-09-30T13:35:10.729Z,1.57
2018-09-30T13:37:42.216Z,1.50
2018-09-30T13:40:13.887Z,1.67
2018-09-30T13:42:45.422Z,1.60
2018-09-30T13:45:17.207Z,1.77
2018-09-30T13:47:48.726Z,1.80
2018-09-30T13:50:20.197Z,2.07
2018-09-30T13:52:51.756Z,1.80
2018-09-30T13:55:23.515Z,1.53
2018-09-30T13:57:54.781Z,1.87
2018-09-30T14:00:26.420Z,1.80
2018-09-30T14:02:57.926Z,1.50
2018-09-30T14:05:29.815Z,1.60
2018-09-30T14:08:01.225Z,1.60
2018-09-30T14:10:32.758Z,1.57
2018-09-30T14:13:04.318Z,1.50
2018-09-30T14:15:35.791Z,1.90
2018-09-30T14:18:07.312Z,1.70
2018-09-30T14:20:38.808Z,1.50
2018-09-30T14:23:10.503Z,1.70
2018-09-30T14:25:42.872Z,1.80
2018-09-30T14:28:14.443Z,1.90
2018-09-30T14:30:45.895Z,1.60
2018-09-30T14:33:17.400Z,1.60
2018-09-30T14:35:48.748Z,1.60
2018-09-30T14:40:58.867Z,1.60
2018-09-30T14:43:29.838Z,1.60
2018-09-30T14:46:00.813Z,1.70
2018-09-30T14:48:32.515Z,2.33
2018-09-30T14:51:03.920Z,1.83
2018-09-30T14:56:05.956Z,1.73
2018-09-30T15:01:08.312Z,1.60
2018-09-30T15:03:39.810Z,1.53
2018-09-30T15:06:11.797Z,1.60
2018-09-30T15:08:43.207Z,1.80
2018-09-30T15:11:14.657Z,1.70
2018-09-30T15:13:46.213Z,1.70
2018-09-30T15:16:17.634Z,1.80
2018-09-30T15:18:49.203Z,1.87
2018-09-30T15:21:20.775Z,1.80
2018-09-30T15:23:52.315Z,1.83
2018-09-30T15:26:23.723Z,1.60
2018-09-30T15:28:55.328Z,2.00
2018-09-30T15:31:26.796Z,1.87
2018-09-30T15:33:58.199Z,2.40
2018-09-30T15:36:29.711Z,1.90
2018-09-30T15:39:01.212Z,1.67
2018-09-30T15:41:32.880Z,1.77
2018-09-30T15:44:05.544Z,1.70
2018-09-30T15:46:37.362Z,1.60
2018-09-30T15:49:09.291Z,1.80
2018-09-30T15:51:40.719Z,1.60
2018-09-30T15:54:12.407Z,1.80
2018-09-30T15:56:43.768Z,1.70
2018-09-30T15:59:15.297Z,1.80
2018-09-30T16:01:46.704Z,2.10
2018-09-30T16:04:18.315Z,2.00
2018-09-30T16:06:49.713Z,1.93
2018-09-30T16:09:21.905Z,2.00
2018-09-30T16:11:53.747Z,2.40
2018-09-30T16:14:25.581Z,2.40
2018-09-30T16:16:56.985Z,2.43
2018-09-30T16:19:28.578Z,2.13
2018-09-30T16:21:59.856Z,2.37
2018-09-30T16:24:31.388Z,2.20
2018-09-30T16:27:02.835Z,1.90
2018-09-30T16:29:34.364Z,1.80
2018-09-30T16:32:05.889Z,2.20
2018-09-30T16:34:37.517Z,2.40
2018-09-30T16:37:08.863Z,1.97
2018-09-30T16:39:40.539Z,2.10
2018-09-30T16:42:12.291Z,2.60
2018-09-30T16:44:43.762Z,2.30
2018-09-30T16:47:15.381Z,1.90
2018-09-30T16:49:46.989Z,1.97
2018-09-30T16:52:18.517Z,2.20
2018-09-30T16:54:50.429Z,2.07
2018-09-30T16:57:21.847Z,2.50
2018-09-30T16:59:53.383Z,2.30
2018-09-30T17:02:24.703Z,2.37
2018-09-30T17:04:56.409Z,2.20
2018-09-30T17:07:27.843Z,2.33
2018-09-30T17:09:58.770Z,2.27
2018-09-30T17:12:29.790Z,2.87
2018-09-30T17:15:01.392Z,3.20
2018-09-30T17:17:32.720Z,2.93
2018-09-30T17:20:04.496Z,3.33
2018-09-30T17:22:35.889Z,2.63
2018-09-30T17:25:07.603Z,3.00
2018-09-30T17:27:39.780Z,2.77
2018-09-30T17:30:11.298Z,2.97
2018-09-30T17:32:42.752Z,2.17
2018-09-30T17:35:14.351Z,2.47
2018-09-30T17:37:45.780Z,2.50
2018-09-30T17:40:17.312Z,2.30
2018-09-30T17:42:48.665Z,2.83
2018-09-30T17:45:19.922Z,2.57
2018-09-30T17:50:22.200Z,2.33
2018-09-30T17:52:53.739Z,2.67
2018-09-30T17:55:25.287Z,2.97
2018-09-30T17:57:56.707Z,2.53
2018-09-30T18:00:28.212Z,2.77
2018-09-30T18:02:59.704Z,2.80
2018-09-30T18:05:31.363Z,2.97
2018-09-30T18:08:02.898Z,3.43
2018-09-30T18:10:34.408Z,3.23
2018-09-30T18:13:05.890Z,3.83
2018-09-30T18:15:38.891Z,3.53
2018-09-30T18:18:11.950Z,3.40
2018-09-30T18:23:16.761Z,3.50
2018-09-30T18:25:48.372Z,3.77
2018-09-30T18:28:23.396Z,4.07
2018-09-30T18:30:56.440Z,3.67
2018-09-30T18:33:29.052Z,3.57
2018-09-30T18:36:01.366Z,4.70
2018-09-30T18:38:34.335Z,3.60
2018-09-30T18:41:06.215Z,4.70
2018-09-30T18:43:37.907Z,4.80
2018-09-30T18:46:12.022Z,4.60
2018-09-30T18:48:44.691Z,3.67
2018-09-30T18:51:17.189Z,4.33
2018-09-30T18:53:49.873Z,4.60
2018-09-30T18:56:22.342Z,4.25
2018-09-30T18:58:54.648Z,4.60
2018-09-30T19:01:27.343Z,3.93
2018-09-30T19:03:58.860Z,4.53
2018-09-30T19:06:31.236Z,4.70
2018-09-30T19:09:04.216Z,4.80
2018-09-30T19:11:36.751Z,5.20
2018-09-30T19:14:09.444Z,4.97
2018-09-30T19:16:41.911Z,4.97
2018-09-30T19:19:14.446Z,5.10
2018-09-30T19:21:47.513Z,5.10
2018-09-30T19:24:19.734Z,5.37
2018-09-30T19:26:52.226Z,5.50
2018-09-30T19:29:24.928Z,5.37
2018-09-30T19:31:56.720Z,5.60
2018-09-30T19:34:28.384Z,5.30
2018-09-30T19:37:01.218Z,4.70
2018-09-30T19:39:33.860Z,3.70
2018-09-30T19:42:05.851Z,4.13
2018-09-30T19:44:38.688Z,4.50
2018-09-30T19:49:31.221Z,4.25
2018-09-30T19:52:03.606Z,3.80
2018-09-30T19:54:35.715Z,3.60
2018-09-30T19:57:09.323Z,4.10
2018-09-30T19:59:41.708Z,4.13
2018-09-30T20:02:14.052Z,4.87
2018-09-30T20:04:46.355Z,4.83
2018-09-30T20:07:19.231Z,4.63
2018-09-30T20:09:50.583Z,3.40
2018-09-30T20:12:21.820Z,4.87
2018-09-30T20:14:53.337Z,4.70
2018-09-30T20:17:24.752Z,5.07
2018-09-30T20:19:56.592Z,5.10
2018-09-30T20:22:29.308Z,5.60
2018-09-30T20:25:00.937Z,4.43
2018-09-30T20:27:32.661Z,5.93
2018-09-30T20:30:04.311Z,6.17
2018-09-30T20:32:35.841Z,5.17
2018-09-30T20:35:06.809Z,5.90
2018-09-30T20:37:38.743Z,4.73
2018-09-30T20:40:10.644Z,5.90
2018-09-30T20:42:42.205Z,5.67
2018-09-30T20:45:13.725Z,5.10
2018-09-30T20:47:45.188Z,5.33
2018-09-30T20:50:16.699Z,5.33
2018-09-30T20:52:48.190Z,5.50
2018-09-30T20:55:19.768Z,5.97
2018-09-30T20:57:51.359Z,7.00
2018-09-30T21:00:22.796Z,6.37
2018-09-30T21:02:54.398Z,6.73
2018-09-30T21:05:46.391Z,6.50
2018-09-30T21:08:17.739Z,6.20
2018-09-30T21:10:49.304Z,6.87
2018-09-30T21:13:20.773Z,6.93
2018-09-30T21:15:52.021Z,7.33
2018-09-30T21:18:23.344Z,7.03
2018-09-30T21:20:54.740Z,6.87
2018-09-30T21:23:26.296Z,5.87
2018-09-30T21:25:58.443Z,7.23
2018-09-30T21:28:29.877Z,6.73
2018-09-30T21:31:01.391Z,7.03
2018-09-30T21:33:32.771Z,5.93
2018-09-30T21:36:03.826Z,6.87
2018-09-30T21:38:35.192Z,7.27
2018-09-30T21:41:06.666Z,6.40
2018-09-30T21:43:38.297Z,7.60
2018-09-30T21:46:09.780Z,6.47
2018-09-30T21:48:41.400Z,6.93
2018-09-30T21:51:12.694Z,5.80
2018-09-30T21:53:44.066Z,7.23
2018-09-30T21:56:15.695Z,6.80
2018-09-30T21:58:47.267Z,7.37
2018-09-30T22:01:18.814Z,7.83
2018-09-30T22:03:50.432Z,7.10
2018-09-30T22:06:21.783Z,5.53
2018-09-30T22:08:53.200Z,7.23
2018-09-30T22:11:24.729Z,6.17
2018-09-30T22:13:56.210Z,7.33
2018-09-30T22:16:27.654Z,8.37
2018-09-30T22:18:59.197Z,6.90
2018-09-30T22:21:30.681Z,8.73
2018-09-30T22:24:02.348Z,8.43
2018-09-30T22:26:33.856Z,7.03
2018-09-30T22:29:05.278Z,7.70
2018-09-30T22:31:36.729Z,6.90
2018-09-30T22:34:08.365Z,6.80
2018-09-30T22:36:39.857Z,8.00
2018-09-30T22:39:11.364Z,7.93
2018-09-30T22:41:42.772Z,7.47
2018-09-30T22:44:14.249Z,6.83
2018-09-30T22:46:45.729Z,7.80
2018-09-30T22:49:17.396Z,8.17
2018-09-30T22:51:48.809Z,8.10
2018-09-30T22:54:20.199Z,6.90
2018-09-30T22:56:51.699Z,8.10
2018-09-30T22:59:23.207Z,8.40
2018-09-30T23:01:54.716Z,9.43
2018-09-30T23:04:26.202Z,9.50
2018-09-30T23:06:57.697Z,7.77
2018-09-30T23:09:29.314Z,9.43
2018-09-30T23:12:00.786Z,9.97
2018-09-30T23:14:32.219Z,9.57
2018-09-30T23:17:03.769Z,8.00
2018-09-30T23:19:35.309Z,8.07
2018-09-30T23:22:06.773Z,9.97
2018-09-30T23:24:38.308Z,7.83
2018-09-30T23:27:09.744Z,8.87
2018-09-30T23:29:41.311Z,8.47
2018-09-30T23:32:12.867Z,8.47
2018-09-30T23:34:44.346Z,8.30
2018-09-30T23:37:15.796Z,7.47
2018-09-30T23:39:47.342Z,7.63
2018-09-30T23:42:18.776Z,7.90
2018-09-30T23:44:50.228Z,8.07
2018-09-30T23:47:21.656Z,6.93
2018-09-30T23:49:53.205Z,7.87
2018-09-30T23:52:24.627Z,6.67
2018-09-30T23:54:55.980Z,6.67
2018-09-30T23:59:57.987Z,6.40
